createdAt,value
2023-03-10T00:01:21.789Z,7.85
2023-03-10T00:03:49.754Z,7.35
2023-03-10T00:06:19.934Z,7.93
2023-03-10T00:08:48.148Z,8.50
2023-03-10T00:11:17.743Z,9.40
2023-03-10T00:13:46.056Z,8.88
2023-03-10T00:16:18.798Z,8.25
2023-03-10T00:18:47.019Z,7.95
2023-03-10T00:21:16.584Z,8.43
2023-03-10T00:23:44.611Z,9.00
2023-03-10T00:26:14.545Z,9.10
2023-03-10T00:28:44.021Z,7.38
2023-03-10T00:31:14.052Z,7.75
2023-03-10T00:33:42.051Z,7.35
2023-03-10T00:36:12.410Z,6.85
2023-03-10T00:38:41.748Z,7.90
2023-03-10T00:41:12.545Z,8.13
2023-03-10T00:43:40.678Z,7.25
2023-03-10T00:46:10.474Z,8.48
2023-03-10T00:48:38.872Z,7.32
2023-03-10T00:51:07.994Z,8.13
2023-03-10T00:53:37.914Z,8.75
2023-03-10T00:56:08.904Z,8.43
2023-03-10T00:58:37.445Z,8.10
2023-03-10T01:01:10.574Z,7.90
2023-03-10T01:03:39.855Z,8.00
2023-03-10T01:06:07.995Z,7.50
2023-03-10T01:08:35.983Z,7.65
2023-03-10T01:11:04.268Z,7.40
2023-03-10T01:13:32.676Z,7.47
2023-03-10T01:16:00.880Z,6.97
2023-03-10T01:18:28.945Z,8.90
2023-03-10T01:20:58.407Z,7.32
2023-03-10T01:23:27.147Z,9.23
2023-03-10T01:25:56.774Z,6.82
2023-03-10T01:28:25.097Z,7.80
2023-03-10T01:30:53.276Z,8.15
2023-03-10T01:33:21.398Z,8.88
2023-03-10T01:35:49.420Z,7.82
2023-03-10T01:38:19.860Z,6.38
2023-03-10T01:40:50.632Z,8.07
2023-03-10T01:43:33.178Z,7.72
2023-03-10T01:46:39.168Z,6.72
2023-03-10T01:49:40.695Z,6.65
2023-03-10T01:52:12.889Z,7.05
2023-03-10T01:54:50.158Z,7.38
2023-03-10T01:57:23.002Z,7.57
2023-03-10T01:59:53.675Z,7.72
2023-03-10T02:02:22.221Z,6.65
2023-03-10T02:04:53.474Z,7.95
2023-03-10T02:07:27.886Z,7.10
2023-03-10T02:09:58.002Z,7.45
2023-03-10T02:12:26.352Z,7.80
2023-03-10T02:14:54.892Z,7.00
2023-03-10T02:17:25.680Z,7.53
2023-03-10T02:20:20.322Z,7.35
2023-03-10T02:22:49.217Z,7.47
2023-03-10T02:25:33.476Z,7.63
2023-03-10T02:28:03.222Z,7.93
2023-03-10T02:30:35.550Z,6.85
2023-03-10T02:33:08.030Z,8.18
2023-03-10T02:35:36.393Z,7.05
2023-03-10T02:38:09.327Z,7.75
2023-03-10T02:40:40.408Z,6.60
2023-03-10T02:43:19.873Z,6.65
2023-03-10T02:45:52.309Z,6.75
2023-03-10T02:48:28.234Z,6.90
2023-03-10T02:50:57.860Z,6.68
2023-03-10T02:53:28.752Z,7.55
2023-03-10T02:55:58.093Z,7.18
2023-03-10T02:58:30.464Z,6.03
2023-03-10T03:00:59.011Z,6.90
2023-03-10T03:03:27.135Z,6.15
2023-03-10T03:05:55.322Z,6.93
2023-03-10T03:08:24.197Z,6.50
2023-03-10T03:10:52.214Z,6.88
2023-03-10T03:13:20.930Z,5.60
2023-03-10T03:15:50.796Z,5.78
2023-03-10T03:18:20.461Z,5.65
2023-03-10T03:20:52.181Z,6.43
2023-03-10T03:23:21.380Z,5.53
2023-03-10T03:25:51.499Z,5.60
2023-03-10T03:28:22.432Z,5.10
2023-03-10T03:30:53.972Z,7.63
2023-03-10T03:33:22.147Z,5.95
2023-03-10T03:35:50.781Z,4.88
2023-03-10T03:38:19.841Z,5.40
2023-03-10T03:40:48.202Z,6.72
2023-03-10T03:43:18.912Z,5.63
2023-03-10T03:45:48.478Z,4.60
2023-03-10T03:48:20.040Z,4.45
2023-03-10T03:50:50.508Z,6.07
2023-03-10T03:53:25.416Z,4.90
2023-03-10T03:55:53.762Z,5.05
2023-03-10T03:58:25.030Z,5.68
2023-03-10T04:00:53.244Z,4.53
2023-03-10T04:03:22.603Z,4.53
2023-03-10T04:05:50.644Z,4.22
2023-03-10T04:08:20.673Z,4.78
2023-03-10T04:10:52.110Z,3.72
2023-03-10T04:13:21.324Z,5.05
2023-03-10T04:15:55.403Z,4.72
2023-03-10T04:18:25.195Z,4.07
2023-03-10T04:20:53.266Z,4.55
2023-03-10T04:23:21.916Z,5.43
2023-03-10T04:25:50.265Z,4.68
2023-03-10T04:28:19.276Z,4.50
2023-03-10T04:30:49.062Z,4.00
2023-03-10T04:33:19.573Z,4.45
2023-03-10T04:35:51.510Z,5.70
2023-03-10T04:38:23.084Z,4.93
2023-03-10T04:40:55.362Z,5.07
2023-03-10T04:43:25.550Z,4.97
2023-03-10T04:45:53.753Z,4.72
2023-03-10T04:48:23.643Z,4.90
2023-03-10T04:50:57.507Z,4.90
2023-03-10T04:55:54.828Z,5.35
2023-03-10T04:58:25.436Z,4.78
2023-03-10T05:01:02.843Z,4.22
2023-03-10T05:03:33.016Z,4.85
2023-03-10T05:06:02.651Z,4.30
2023-03-10T05:08:31.179Z,5.28
2023-03-10T05:10:59.243Z,5.43
2023-03-10T05:13:28.069Z,5.40
2023-03-10T05:15:57.433Z,4.75
2023-03-10T05:18:25.446Z,5.07
2023-03-10T05:20:54.968Z,4.63
2023-03-10T05:23:25.303Z,4.53
2023-03-10T05:25:53.380Z,5.03
2023-03-10T05:28:25.414Z,6.13
2023-03-10T05:30:54.256Z,5.15
2023-03-10T05:33:22.257Z,5.90
2023-03-10T05:35:51.827Z,4.82
2023-03-10T05:38:19.971Z,4.93
2023-03-10T05:40:49.251Z,5.88
2023-03-10T05:43:17.817Z,5.50
2023-03-10T05:45:45.980Z,5.65
2023-03-10T05:48:14.144Z,5.50
2023-03-10T05:50:42.076Z,4.93
2023-03-10T05:53:10.136Z,5.07
2023-03-10T05:55:38.531Z,5.05
2023-03-10T05:58:08.221Z,4.97
2023-03-10T06:00:36.229Z,5.22
2023-03-10T06:03:04.493Z,5.25
2023-03-10T06:05:32.489Z,5.43
2023-03-10T06:08:00.784Z,4.60
2023-03-10T06:10:28.776Z,4.75
2023-03-10T06:12:57.015Z,5.18
2023-03-10T06:15:26.677Z,4.18
2023-03-10T06:17:54.595Z,5.32
2023-03-10T06:20:22.567Z,5.60
2023-03-10T06:22:52.265Z,4.75
2023-03-10T06:25:20.584Z,5.50
2023-03-10T06:27:48.732Z,5.22
2023-03-10T06:30:17.724Z,4.95
2023-03-10T06:32:47.641Z,4.88
2023-03-10T06:35:16.400Z,5.43
2023-03-10T06:37:44.559Z,5.00
2023-03-10T06:40:14.675Z,5.88
2023-03-10T06:42:43.018Z,5.55
2023-03-10T06:45:14.619Z,5.68
2023-03-10T06:47:47.128Z,5.47
2023-03-10T06:50:18.314Z,6.00
2023-03-10T06:52:47.072Z,5.85
2023-03-10T06:55:16.935Z,6.78
2023-03-10T06:57:44.953Z,5.93
2023-03-10T07:00:15.771Z,5.68
2023-03-10T07:02:44.119Z,6.65
2023-03-10T07:05:14.984Z,5.55
2023-03-10T07:07:43.025Z,6.72
2023-03-10T07:10:12.786Z,6.57
2023-03-10T07:12:41.083Z,5.70
2023-03-10T07:15:10.172Z,5.45
2023-03-10T07:17:38.222Z,6.03
2023-03-10T07:20:07.372Z,5.18
2023-03-10T07:22:36.872Z,5.43
2023-03-10T07:25:06.090Z,5.55
2023-03-10T07:27:34.938Z,4.63
2023-03-10T07:30:03.039Z,4.85
2023-03-10T07:32:31.260Z,5.13
2023-03-10T07:34:59.459Z,4.97
2023-03-10T07:37:27.387Z,5.03
2023-03-10T07:39:56.913Z,4.82
2023-03-10T07:42:24.892Z,5.13
2023-03-10T07:44:54.133Z,5.45
2023-03-10T07:47:21.982Z,5.55
2023-03-10T07:49:50.031Z,5.75
2023-03-10T07:52:19.490Z,5.57
2023-03-10T07:54:48.462Z,5.63
2023-03-10T07:57:17.851Z,5.50
2023-03-10T07:59:45.877Z,4.90
2023-03-10T08:02:14.921Z,5.40
2023-03-10T08:04:43.301Z,5.22
2023-03-10T08:07:11.579Z,5.65
2023-03-10T08:09:39.597Z,4.35
2023-03-10T08:12:08.787Z,5.15
2023-03-10T08:14:38.221Z,4.82
2023-03-10T08:17:06.324Z,4.68
2023-03-10T08:19:34.257Z,4.82
2023-03-10T08:22:02.625Z,4.32
2023-03-10T08:24:31.053Z,4.75
2023-03-10T08:26:59.064Z,5.30
2023-03-10T08:29:26.970Z,8.98
2023-03-10T08:31:56.311Z,5.43
2023-03-10T08:34:24.640Z,9.77
2023-03-10T08:36:52.637Z,6.32
2023-03-10T08:39:20.739Z,10.70
2023-03-10T08:41:49.691Z,5.88
2023-03-10T08:44:18.939Z,5.28
2023-03-10T08:46:49.091Z,5.00
2023-03-10T08:49:20.983Z,5.40
2023-03-10T08:51:49.839Z,5.05
2023-03-10T08:54:20.438Z,6.05
2023-03-10T08:56:48.523Z,5.38
2023-03-10T08:59:16.592Z,5.78
2023-03-10T09:01:44.824Z,6.10
2023-03-10T09:04:13.267Z,4.82
2023-03-10T09:06:42.751Z,5.82
2023-03-10T09:09:11.179Z,6.20
2023-03-10T09:11:40.944Z,5.70
2023-03-10T09:14:10.339Z,6.32
2023-03-10T09:16:40.682Z,6.53
2023-03-10T09:19:08.729Z,7.07
2023-03-10T09:21:36.991Z,5.95
2023-03-10T09:24:06.805Z,6.20
2023-03-10T09:26:35.352Z,6.10
2023-03-10T09:29:04.436Z,6.53
2023-03-10T09:31:35.258Z,6.82
2023-03-10T09:34:03.836Z,7.82
2023-03-10T09:36:32.124Z,5.80
2023-03-10T09:39:00.244Z,6.30
2023-03-10T09:42:06.869Z,7.53
2023-03-10T09:44:42.795Z,6.85
2023-03-10T09:47:27.470Z,7.32
2023-03-10T09:50:08.889Z,7.10
2023-03-10T09:52:45.261Z,7.05
2023-03-10T09:55:21.405Z,7.68
2023-03-10T09:57:51.727Z,7.78
2023-03-10T10:00:25.164Z,7.18
2023-03-10T10:03:02.357Z,7.15
2023-03-10T10:05:33.702Z,7.75
2023-03-10T10:08:05.907Z,7.32
2023-03-10T10:10:38.384Z,6.88
2023-03-10T10:13:14.381Z,6.38
2023-03-10T10:15:47.360Z,7.75
2023-03-10T10:18:25.699Z,6.72
2023-03-10T10:21:00.258Z,6.78
2023-03-10T10:23:35.071Z,6.28
2023-03-10T10:26:11.616Z,7.05
2023-03-10T10:28:45.057Z,7.10
2023-03-10T10:31:18.405Z,7.93
2023-03-10T10:33:56.079Z,6.97
2023-03-10T10:36:26.169Z,7.18
2023-03-10T10:38:55.957Z,7.80
2023-03-10T10:41:29.405Z,7.45
2023-03-10T10:44:00.578Z,7.85
2023-03-10T10:46:30.842Z,7.10
2023-03-10T10:49:08.918Z,8.02
2023-03-10T10:51:38.633Z,7.40
2023-03-10T10:54:23.903Z,7.35
2023-03-10T10:56:56.748Z,7.68
2023-03-10T10:59:29.636Z,8.20
2023-03-10T11:02:01.035Z,7.65
2023-03-10T11:04:31.150Z,7.88
2023-03-10T11:07:17.261Z,8.10
2023-03-10T11:09:48.099Z,7.68
2023-03-10T11:12:24.144Z,8.27
2023-03-10T11:15:04.360Z,7.40
2023-03-10T11:17:38.413Z,7.70
2023-03-10T11:20:24.436Z,9.27
2023-03-10T11:23:02.636Z,6.82
2023-03-10T11:25:37.767Z,7.97
2023-03-10T11:28:30.124Z,7.85
2023-03-10T11:31:06.349Z,7.43
2023-03-10T11:33:43.816Z,7.25
2023-03-10T11:36:21.990Z,7.20
2023-03-10T11:38:54.646Z,7.10
2023-03-10T11:41:27.335Z,7.03
2023-03-10T11:43:59.646Z,7.75
2023-03-10T11:46:33.517Z,6.40
2023-03-10T11:49:08.376Z,5.72
2023-03-10T11:51:40.453Z,6.50
2023-03-10T11:54:15.752Z,6.88
2023-03-10T11:56:45.683Z,6.75
2023-03-10T11:59:18.902Z,6.53
2023-03-10T12:01:52.018Z,6.60
2023-03-10T12:04:25.905Z,5.30
2023-03-10T12:06:58.109Z,5.55
2023-03-10T12:09:38.353Z,4.13
2023-03-10T12:12:07.608Z,6.95
2023-03-10T12:14:36.887Z,6.47
2023-03-10T12:17:05.776Z,7.00
2023-03-10T12:20:24.315Z,6.68
2023-03-10T12:22:53.981Z,6.97
2023-03-10T12:25:44.182Z,7.20
2023-03-10T12:28:13.977Z,5.60
2023-03-10T12:30:46.355Z,5.50
2023-03-10T12:33:42.779Z,4.55
2023-03-10T12:36:16.020Z,4.38
2023-03-10T12:38:46.657Z,4.07
2023-03-10T12:41:16.756Z,3.70
2023-03-10T12:44:03.330Z,3.58
2023-03-10T12:46:43.564Z,3.70
2023-03-10T12:49:34.790Z,3.15
2023-03-10T12:52:21.028Z,3.20
2023-03-10T12:54:55.129Z,3.83
2023-03-10T12:57:30.897Z,3.33
2023-03-10T13:00:06.211Z,6.05
2023-03-10T13:02:48.549Z,5.82
2023-03-10T13:05:23.978Z,5.22
2023-03-10T13:07:59.073Z,5.57
2023-03-10T13:10:32.642Z,5.70
2023-03-10T13:13:05.448Z,4.78
2023-03-10T13:15:35.001Z,4.45
2023-03-10T13:18:18.171Z,3.72
2023-03-10T13:20:46.733Z,3.65
2023-03-10T13:23:24.057Z,3.42
2023-03-10T13:25:58.082Z,3.35
2023-03-10T13:28:31.430Z,3.03
2023-03-10T13:31:43.740Z,3.08
2023-03-10T13:34:19.960Z,2.90
2023-03-10T13:36:48.500Z,2.10
2023-03-10T13:39:24.599Z,2.70
2023-03-10T13:42:05.113Z,2.80
2023-03-10T13:44:35.551Z,3.03
2023-03-10T13:47:13.366Z,3.30
2023-03-10T13:49:46.434Z,3.45
2023-03-10T13:52:16.709Z,3.38
2023-03-10T13:54:46.035Z,3.28
2023-03-10T13:57:21.197Z,2.55
2023-03-10T13:59:50.279Z,3.00
2023-03-10T14:02:30.904Z,2.97
2023-03-10T14:05:00.827Z,3.70
2023-03-10T14:07:33.542Z,3.92
2023-03-10T14:10:20.951Z,3.25
2023-03-10T14:12:50.757Z,4.45
2023-03-10T14:15:26.242Z,4.57
2023-03-10T14:18:18.357Z,3.90
2023-03-10T14:20:47.249Z,3.30
2023-03-10T14:23:32.534Z,3.50
2023-03-10T14:26:01.880Z,3.67
2023-03-10T14:28:34.300Z,3.40
2023-03-10T14:31:04.519Z,3.80
2023-03-10T14:33:32.567Z,4.40
2023-03-10T14:36:00.606Z,3.67
2023-03-10T14:38:28.651Z,3.67
2023-03-10T14:40:56.829Z,5.45
2023-03-10T14:43:28.681Z,3.92
2023-03-10T14:45:58.623Z,3.65
2023-03-10T14:48:29.057Z,4.43
2023-03-10T14:50:57.425Z,3.65
2023-03-10T14:53:27.327Z,3.72
2023-03-10T14:55:57.286Z,3.67
2023-03-10T14:58:31.309Z,3.83
2023-03-10T15:01:00.034Z,3.92
2023-03-10T15:03:28.516Z,3.70
2023-03-10T15:05:56.508Z,4.28
2023-03-10T15:08:24.596Z,3.88
2023-03-10T15:10:53.530Z,3.97
2023-03-10T15:13:24.116Z,3.88
2023-03-10T15:15:53.617Z,3.97
2023-03-10T15:18:23.600Z,3.95
2023-03-10T15:20:51.689Z,3.72
2023-03-10T15:23:22.621Z,4.40
2023-03-10T15:25:50.657Z,3.50
2023-03-10T15:28:18.674Z,3.42
2023-03-10T15:30:46.991Z,3.53
2023-03-10T15:33:17.753Z,3.55
2023-03-10T15:35:46.146Z,3.38
2023-03-10T15:38:15.301Z,3.53
2023-03-10T15:40:43.848Z,3.80
2023-03-10T15:43:11.782Z,4.05
2023-03-10T15:45:42.555Z,4.20
2023-03-10T15:48:11.440Z,4.20
2023-03-10T15:50:44.792Z,4.45
2023-03-10T15:53:12.818Z,4.60
2023-03-10T15:55:42.256Z,5.68
2023-03-10T15:58:14.981Z,6.22
2023-03-10T16:00:45.046Z,5.85
2023-03-10T16:03:17.757Z,5.00
2023-03-10T16:05:50.716Z,5.53
2023-03-10T16:08:19.155Z,4.93
2023-03-10T16:10:53.759Z,6.63
2023-03-10T16:13:22.447Z,6.72
2023-03-10T16:15:57.626Z,6.63
2023-03-10T16:18:25.716Z,6.25
2023-03-10T16:20:59.238Z,6.60
2023-03-10T16:23:28.857Z,6.15
2023-03-10T16:26:08.224Z,5.78
2023-03-10T16:28:36.975Z,6.40
2023-03-10T16:31:20.704Z,5.72
2023-03-10T16:33:50.619Z,6.93
2023-03-10T16:36:21.511Z,5.82
2023-03-10T16:38:50.478Z,6.38
2023-03-10T16:41:21.351Z,6.85
2023-03-10T16:43:49.445Z,5.80
2023-03-10T16:46:21.685Z,6.55
2023-03-10T16:48:49.819Z,7.43
2023-03-10T16:51:38.600Z,7.47
2023-03-10T16:54:08.864Z,6.88
2023-03-10T16:56:39.103Z,7.35
2023-03-10T16:59:07.586Z,7.50
2023-03-10T17:01:38.325Z,7.30
2023-03-10T17:04:06.550Z,6.85
2023-03-10T17:06:34.957Z,7.40
2023-03-10T17:09:06.555Z,7.18
2023-03-10T17:11:36.365Z,7.35
2023-03-10T17:14:07.063Z,7.32
2023-03-10T17:16:38.750Z,7.30
2023-03-10T17:19:08.704Z,7.40
2023-03-10T17:21:45.588Z,7.35
2023-03-10T17:24:26.671Z,7.43
2023-03-10T17:26:54.782Z,6.22
2023-03-10T17:29:22.875Z,6.45
2023-03-10T17:31:51.687Z,6.85
2023-03-10T17:34:20.608Z,7.35
2023-03-10T17:36:51.082Z,7.07
2023-03-10T17:39:21.772Z,7.95
2023-03-10T17:41:50.130Z,6.40
2023-03-10T17:44:18.552Z,7.63
2023-03-10T17:46:46.651Z,7.03
2023-03-10T17:49:15.911Z,7.25
2023-03-10T17:51:44.711Z,6.95
2023-03-10T17:54:14.762Z,6.90
2023-03-10T17:56:46.891Z,7.07
2023-03-10T17:59:16.139Z,7.68
2023-03-10T18:01:45.374Z,7.15
2023-03-10T18:04:16.203Z,6.22
2023-03-10T18:06:46.352Z,7.07
2023-03-10T18:09:15.746Z,8.10
2023-03-10T18:11:45.234Z,7.93
2023-03-10T18:14:13.266Z,7.43
2023-03-10T18:16:42.078Z,6.05
2023-03-10T18:19:11.443Z,7.30
2023-03-10T18:21:39.977Z,7.65
2023-03-10T18:24:10.730Z,6.97
2023-03-10T18:26:43.304Z,7.90
2023-03-10T18:29:13.959Z,6.80
2023-03-10T18:31:42.207Z,6.97
2023-03-10T18:34:11.017Z,6.47
2023-03-10T18:36:39.112Z,6.22
2023-03-10T18:39:07.857Z,5.38
2023-03-10T18:41:36.171Z,6.22
2023-03-10T18:44:05.529Z,6.03
2023-03-10T18:46:34.914Z,6.50
2023-03-10T18:49:02.976Z,7.32
2023-03-10T18:51:31.078Z,5.78
2023-03-10T18:53:59.212Z,5.50
2023-03-10T18:56:29.006Z,5.53
2023-03-10T18:58:57.101Z,6.07
2023-03-10T19:01:25.565Z,6.32
2023-03-10T19:03:55.066Z,6.22
2023-03-10T19:06:23.136Z,5.32
2023-03-10T19:08:53.364Z,5.85
2023-03-10T19:11:24.116Z,5.72
2023-03-10T19:13:52.244Z,5.50
2023-03-10T19:16:21.226Z,6.18
2023-03-10T19:18:49.488Z,5.25
2023-03-10T19:21:19.234Z,5.72
2023-03-10T19:23:48.073Z,5.78
2023-03-10T19:26:16.027Z,5.10
2023-03-10T19:28:44.473Z,5.85
2023-03-10T19:31:14.578Z,4.97
2023-03-10T19:33:43.072Z,4.85
2023-03-10T19:36:13.580Z,6.25
2023-03-10T19:38:44.453Z,5.63
2023-03-10T19:41:15.322Z,5.78
2023-03-10T19:43:44.069Z,6.00
2023-03-10T19:46:14.237Z,6.88
2023-03-10T19:48:42.488Z,6.60
2023-03-10T19:51:18.214Z,6.05
2023-03-10T19:53:47.756Z,6.07
2023-03-10T19:56:18.699Z,14.45
2023-03-10T19:58:48.134Z,11.13
2023-03-10T20:01:19.812Z,14.93
2023-03-10T20:03:47.958Z,7.53
2023-03-10T20:06:16.130Z,7.15
2023-03-10T20:08:44.172Z,6.75
2023-03-10T20:11:14.798Z,7.68
2023-03-10T20:13:44.188Z,6.90
2023-03-10T20:16:15.255Z,7.68
2023-03-10T20:18:43.472Z,7.38
2023-03-10T20:21:11.707Z,7.53
2023-03-10T20:23:39.979Z,7.53
2023-03-10T20:26:10.246Z,7.07
2023-03-10T20:28:40.638Z,6.88
2023-03-10T20:31:09.450Z,7.75
2023-03-10T20:33:37.786Z,6.60
2023-03-10T20:36:08.492Z,7.18
2023-03-10T20:38:36.500Z,6.10
2023-03-10T20:41:04.640Z,7.85
2023-03-10T20:43:32.596Z,7.32
2023-03-10T20:46:02.025Z,14.23
2023-03-10T20:48:30.036Z,8.07
2023-03-10T20:50:58.755Z,7.88
2023-03-10T20:53:26.775Z,7.72
2023-03-10T20:55:55.017Z,7.43
2023-03-10T20:58:22.993Z,7.88
2023-03-10T21:00:51.053Z,6.95
2023-03-10T21:03:21.414Z,7.07
2023-03-10T21:05:49.540Z,6.93
2023-03-10T21:08:17.657Z,6.78
2023-03-10T21:10:47.175Z,7.25
2023-03-10T21:13:17.022Z,8.18
2023-03-10T21:15:45.439Z,7.68
2023-03-10T21:18:13.490Z,7.78
2023-03-10T21:20:43.153Z,7.25
2023-03-10T21:23:11.389Z,6.68
2023-03-10T21:25:41.366Z,8.77
2023-03-10T21:28:09.594Z,7.35
2023-03-10T21:30:38.693Z,8.10
2023-03-10T21:33:06.831Z,7.45
2023-03-10T21:35:38.511Z,8.82
2023-03-10T21:38:08.028Z,7.85
2023-03-10T21:40:36.020Z,7.55
2023-03-10T21:43:04.097Z,6.72
2023-03-10T21:45:37.308Z,7.03
2023-03-10T21:48:06.233Z,8.65
2023-03-10T21:50:34.433Z,7.60
2023-03-10T21:53:02.466Z,8.35
2023-03-10T21:55:33.093Z,8.35
2023-03-10T21:58:02.890Z,6.97
2023-03-10T22:00:31.090Z,7.95
2023-03-10T22:02:59.316Z,6.97
2023-03-10T22:05:27.404Z,5.90
2023-03-10T22:07:56.797Z,7.50
2023-03-10T22:10:24.939Z,7.22
2023-03-10T22:12:54.411Z,7.35
2023-03-10T22:15:24.696Z,6.93
2023-03-10T22:17:53.560Z,6.72
2023-03-10T22:20:23.199Z,6.85
2023-03-10T22:22:51.175Z,6.60
2023-03-10T22:25:20.011Z,6.25
2023-03-10T22:27:50.862Z,7.65
2023-03-10T22:30:21.662Z,7.28
2023-03-10T22:32:49.951Z,8.20
2023-03-10T22:35:19.036Z,7.30
2023-03-10T22:37:48.199Z,7.03
2023-03-10T22:40:18.090Z,6.72
2023-03-10T22:42:46.535Z,6.35
2023-03-10T22:45:20.137Z,6.35
2023-03-10T22:47:50.695Z,6.85
2023-03-10T22:50:20.755Z,7.25
2023-03-10T22:52:49.470Z,7.15
2023-03-10T22:55:19.571Z,8.18
2023-03-10T22:57:47.765Z,6.53
2023-03-10T23:00:19.891Z,6.00
2023-03-10T23:02:50.781Z,6.57
2023-03-10T23:05:19.957Z,5.18
2023-03-10T23:07:48.564Z,5.03
2023-03-10T23:10:18.738Z,6.18
2023-03-10T23:12:46.855Z,6.07
2023-03-10T23:15:24.933Z,7.05
2023-03-10T23:17:55.575Z,6.00
2023-03-10T23:20:27.279Z,7.53
2023-03-10T23:22:56.712Z,5.78
2023-03-10T23:25:27.257Z,6.50
2023-03-10T23:27:55.171Z,7.53
2023-03-10T23:30:23.290Z,8.60
2023-03-10T23:32:54.249Z,6.88
2023-03-10T23:35:26.509Z,6.47
2023-03-10T23:37:55.008Z,7.05
2023-03-10T23:40:27.040Z,7.82
2023-03-10T23:42:55.236Z,6.03
2023-03-10T23:45:24.952Z,5.68
2023-03-10T23:47:55.409Z,7.45
2023-03-10T23:50:27.371Z,6.15
2023-03-10T23:52:55.859Z,6.30
2023-03-10T23:55:26.322Z,7.03
2023-03-10T23:57:54.774Z,7.40
